Time;durP1;ratioP1;P1;durP2;ratioP2;P2;SDS_P1;SDS_P2;PMS_P1;PMS_P2;Temp;Humidity;BMP_temperature;BMP_pressure;BME280_temperature;BME280_humidity;BME280_pressure;Samples;Min_cycle;Max_cycle;Signal;HPM_P1;HPM_P2
2021/05/12 00:00:01;;;;;;;23.33;19.45;;;;;;;15.30;84.97;99662.16;5045112;28;20036;-72
2021/05/12 00:02:28;;;;;;;22.58;20.17;;;;;;;15.26;84.91;99658.78;5043448;28;20112;-72
2021/05/12 00:04:53;;;;;;;24.33;19.52;;;;;;;15.34;85.00;99661.13;5045729;28;20078;-72
2021/05/12 00:07:18;;;;;;;23.38;18.35;;;;;;;15.29;84.53;99663.97;5045083;28;20041;-72
2021/05/12 00:09:44;;;;;;;22.95;20.27;;;;;;;15.23;84.52;99666.88;5049490;28;20048;-72
2021/05/12 00:12:10;;;;;;;21.50;19.17;;;;;;;15.22;84.93;99674.91;5044559;28;20033;-72
2021/05/12 00:14:38;;;;;;;20.80;17.92;;;;;;;15.21;84.94;99684.69;5043395;28;20518;-72
2021/05/12 00:17:04;;;;;;;21.50;19.05;;;;;;;15.28;84.85;99686.19;5052347;28;20048;-71
2021/05/12 00:19:32;;;;;;;23.52;20.40;;;;;;;15.36;83.95;99691.19;5049097;28;20506;-72
2021/05/12 00:22:13;;;;;;;22.70;20.10;;;;;;;15.33;84.01;99693.97;5043554;28;20144;-72
2021/05/12 00:24:40;;;;;;;20.92;18.70;;;;;;;15.28;84.01;99699.47;5050792;28;20033;-72
2021/05/12 00:27:06;;;;;;;21.48;19.27;;;;;;;15.24;83.83;99684.56;5049023;28;20029;-72
2021/05/12 00:29:32;;;;;;;19.67;17.58;;;;;;;15.16;84.33;99697.28;5048037;28;20487;-72
2021/05/12 00:31:57;;;;;;;19.02;16.95;;;;;;;15.11;84.16;99699.25;5047102;28;20029;-72
2021/05/12 00:34:23;;;;;;;18.45;16.45;;;;;;;15.07;84.22;99692.31;5046500;28;20040;-72
2021/05/12 00:36:48;;;;;;;16.67;14.93;;;;;;;15.04;84.23;99697.75;5045693;28;20197;-72
2021/05/12 00:39:13;;;;;;;16.20;14.55;;;;;;;14.99;84.35;99697.94;5043665;28;20037;-72
2021/05/12 00:41:41;;;;;;;16.90;13.52;;;;;;;15.00;84.27;99690.81;5049216;28;20036;-72
2021/05/12 00:44:15;;;;;;;14.57;13.07;;;;;;;14.93;84.41;99700.78;5046578;28;20491;-72
2021/05/12 00:46:48;;;;;;;17.23;14.07;;;;;;;14.96;83.83;99699.81;5046356;28;20033;-71
2021/05/12 00:49:15;;;;;;;14.00;12.55;;;;;;;14.84;84.69;99709.97;5049488;28;20032;-72
2021/05/12 00:51:41;;;;;;;13.70;12.27;;;;;;;14.88;84.45;99698.34;5061912;23;20049;-74
2021/05/12 00:54:07;;;;;;;13.50;12.13;;;;;;;14.96;83.96;99694.50;5065423;28;20464;-75
2021/05/12 00:56:33;;;;;;;13.45;12.05;;;;;;;14.87;84.02;99701.88;5064128;28;20123;-75
2021/05/12 00:59:00;;;;;;;15.88;12.55;;;;;;;14.87;84.08;99701.88;5061910;28;20037;-75
2021/05/12 01:01:25;;;;;;;13.88;12.43;;;;;;;14.84;84.68;99706.47;5064709;28;20025;-75
2021/05/12 01:03:51;;;;;;;16.35;14.27;;;;;;;14.87;84.45;99712.50;5062851;28;20398;-76
2021/05/12 01:06:24;;;;;;;14.48;13.02;;;;;;;14.86;84.08;99708.13;5062015;28;20037;-76
2021/05/12 01:08:49;;;;;;;15.63;13.88;;;;;;;14.85;84.37;99714.34;5064919;28;20447;-75
2021/05/12 01:11:15;;;;;;;15.10;13.55;;;;;;;14.90;83.75;99723.03;5062100;28;20090;-75
2021/05/12 01:13:40;;;;;;;16.10;14.55;;;;;;;14.92;83.73;99714.16;5063383;28;20033;-76
2021/05/12 01:16:06;;;;;;;16.02;13.90;;;;;;;14.90;83.87;99716.84;5063980;28;20067;-76
2021/05/12 01:18:31;;;;;;;15.45;13.85;;;;;;;14.93;83.38;99710.56;5061769;28;20395;-76
2021/05/12 01:21:02;;;;;;;17.75;15.48;;;;;;;14.91;83.49;99718.59;5064822;28;20072;-78
2021/05/12 01:23:30;;;;;;;18.15;16.25;;;;;;;14.83;83.75;99720.69;5063232;28;20424;-76
2021/05/12 01:25:57;;;;;;;18.02;16.23;;;;;;;14.86;83.71;99716.09;5077536;28;20475;-77
2021/05/12 01:28:26;;;;;;;18.25;16.30;;;;;;;14.83;83.85;99718.03;5064618;28;20078;-77
2021/05/12 01:30:58;;;;;;;18.63;16.77;;;;;;;14.86;83.61;99705.47;5062545;28;20114;-75
2021/05/12 01:33:25;;;;;;;21.73;19.35;;;;;;;14.85;83.30;99710.84;5061604;28;20041;-76
2021/05/12 01:35:51;;;;;;;19.17;17.17;;;;;;;14.85;83.68;99717.00;5057879;28;20064;-77
2021/05/12 01:38:16;;;;;;;20.42;18.25;;;;;;;14.90;82.77;99711.53;5063505;28;20486;-76
2021/05/12 01:40:43;;;;;;;19.67;17.67;;;;;;;14.83;83.48;99710.06;5063029;28;20029;-76
2021/05/12 01:43:08;;;;;;;19.83;17.77;;;;;;;14.79;83.48;99714.59;5061260;28;20037;-76
2021/05/12 01:45:34;;;;;;;20.05;17.63;;;;;;;14.77;83.25;99721.75;5064317;28;20059;-74
2021/05/12 01:48:00;;;;;;;22.13;18.80;;;;;;;14.80;82.93;99726.06;5060491;28;20729;-76
2021/05/12 01:50:25;;;;;;;21.35;19.15;;;;;;;14.70;83.56;99720.25;5062732;28;20039;-76
2021/05/12 01:52:51;;;;;;;19.88;17.83;;;;;;;14.68;83.41;99716.78;5062925;28;20040;-76
2021/05/12 01:55:16;;;;;;;23.55;20.58;;;;;;;14.72;83.36;99702.44;5061086;28;20053;-75
2021/05/12 01:57:43;;;;;;;22.08;19.65;;;;;;;14.72;83.19;99702.44;5069998;28;20461;-76
2021/05/12 02:00:21;;;;;;;24.75;19.13;;;;;;;14.68;83.35;99691.09;5062954;28;20448;-76
2021/05/12 02:02:47;;;;;;;24.80;20.30;;;;;;;14.52;84.10;99694.31;5063706;28;20086;-75
2021/05/12 02:05:15;;;;;;;23.88;19.75;;;;;;;14.46;84.25;99701.59;5061700;28;20021;-75
2021/05/12 02:07:40;;;;;;;21.50;18.73;;;;;;;14.44;84.18;99711.38;5062101;28;20032;-75
2021/05/12 02:10:06;;;;;;;23.23;20.00;;;;;;;14.48;83.84;99698.84;5062589;28;20094;-75
2021/05/12 02:12:32;;;;;;;24.08;20.60;;;;;;;14.47;84.25;99711.28;5060197;28;20514;-75
2021/05/12 02:14:57;;;;;;;22.50;20.10;;;;;;;14.46;84.47;99721.94;5063250;28;20120;-75
2021/05/12 02:17:22;;;;;;;24.45;20.58;;;;;;;14.44;84.49;99719.34;5036155;28;20116;-75
2021/05/12 02:19:48;;;;;;;24.40;21.83;;;;;;;14.44;84.51;99722.00;5061507;28;20410;-75
2021/05/12 02:22:13;;;;;;;22.73;20.13;;;;;;;14.43;84.54;99727.34;5062944;28;20095;-76
2021/05/12 02:24:39;;;;;;;20.70;18.50;;;;;;;14.46;84.41;99733.44;5060355;28;20033;-75
2021/05/12 02:27:04;;;;;;;22.15;19.85;;;;;;;14.46;84.56;99728.13;5062594;28;20119;-75
2021/05/12 02:29:30;;;;;;;21.60;18.63;;;;;;;14.54;84.23;99734.97;5061773;28;20032;-75
2021/05/12 02:31:55;;;;;;;21.42;19.23;;;;;;;14.52;84.18;99734.16;5059100;28;20135;-75
2021/05/12 02:34:20;;;;;;;23.70;18.58;;;;;;;14.54;84.14;99740.28;5062786;28;20139;-74
2021/05/12 02:36:46;;;;;;;23.50;20.15;;;;;;;14.62;83.94;99743.56;5060231;28;20240;-75
2021/05/12 02:39:11;;;;;;;21.45;18.90;;;;;;;14.63;83.96;99739.97;5062343;28;20036;-75
2021/05/12 02:41:36;;;;;;;21.50;19.23;;;;;;;14.71;83.56;99737.91;5061411;28;20087;-76
2021/05/12 02:44:02;;;;;;;22.92;20.60;;;;;;;14.78;83.28;99734.13;5056159;28;20094;-75
2021/05/12 02:46:27;;;;;;;21.95;19.70;;;;;;;14.87;82.54;99727.59;5060779;28;20108;-76
2021/05/12 02:48:53;;;;;;;20.80;18.63;;;;;;;14.89;81.86;99731.94;5061467;28;20075;-76
2021/05/12 02:51:18;;;;;;;22.95;20.27;;;;;;;14.89;82.37;99729.28;5060488;28;20029;-76
2021/05/12 02:53:43;;;;;;;22.17;19.90;;;;;;;14.83;82.47;99726.84;5060979;28;20048;-76
2021/05/12 02:56:09;;;;;;;23.17;20.77;;;;;;;14.85;82.56;99729.44;5062354;28;20024;-76
2021/05/12 02:58:34;;;;;;;23.77;21.27;;;;;;;14.78;82.95;99733.25;5059760;28;20028;-76
2021/05/12 03:01:00;;;;;;;21.48;19.17;;;;;;;14.85;82.45;99738.25;5062260;28;20384;-77
2021/05/12 03:03:25;;;;;;;21.67;19.45;;;;;;;14.89;82.10;99736.38;5059592;28;20491;-76
2021/05/12 03:05:51;;;;;;;25.23;22.55;;;;;;;14.93;82.46;99742.44;5059601;28;20036;-76
2021/05/12 03:08:16;;;;;;;27.08;20.10;;;;;;;14.95;82.07;99740.59;5064844;28;20037;-76
2021/05/12 03:10:41;;;;;;;22.50;19.33;;;;;;;14.89;82.20;99737.25;5062566;28;20036;-75
2021/05/12 03:13:07;;;;;;;21.58;19.30;;;;;;;14.87;81.93;99738.22;5059961;28;20038;-75
2021/05/12 03:15:35;;;;;;;21.50;19.33;;;;;;;14.84;82.37;99728.56;5061144;28;20124;-76
2021/05/12 03:18:01;;;;;;;19.65;17.45;;;;;;;14.84;82.21;99733.88;5062252;28;20044;-75
2021/05/12 03:20:28;;;;;;;20.15;17.98;;;;;;;14.85;81.81;99738.25;5058710;28;20029;-75
2021/05/12 03:22:54;;;;;;;20.92;18.60;;;;;;;14.81;82.25;99744.63;5061338;28;20036;-75
2021/05/12 03:25:20;;;;;;;20.30;18.20;;;;;;;14.80;82.32;99737.59;5060977;28;20071;-75
2021/05/12 03:27:46;;;;;;;18.77;16.77;;;;;;;14.88;81.83;99740.84;5059910;28;20029;-73
2021/05/12 03:30:15;;;;;;;19.63;17.55;;;;;;;14.78;81.99;99736.78;5058301;28;20410;-74
2021/05/12 03:32:41;;;;;;;19.80;17.17;;;;;;;14.73;82.87;99741.38;5055143;28;20043;-76
2021/05/12 03:35:07;;;;;;;21.20;17.83;;;;;;;14.78;82.64;99742.09;5076007;28;20115;-75
2021/05/12 03:37:33;;;;;;;18.98;16.98;;;;;;;14.83;82.27;99747.25;5061941;28;20033;-75
2021/05/12 03:39:58;;;;;;;21.88;18.48;;;;;;;14.87;81.90;99746.19;5056307;28;20029;-76
2021/05/12 03:42:24;;;;;;;19.63;17.50;;;;;;;14.81;81.77;99759.72;5043679;28;20036;-76
2021/05/12 03:44:49;;;;;;;18.35;16.08;;;;;;;14.87;81.86;99765.66;5060591;28;20418;-75
2021/05/12 03:47:14;;;;;;;20.23;18.10;;;;;;;14.85;81.89;99762.19;5060250;28;20039;-75
2021/05/12 03:49:40;;;;;;;22.33;20.08;;;;;;;14.81;82.06;99762.38;5062191;28;20047;-75
2021/05/12 03:52:05;;;;;;;18.77;16.33;;;;;;;14.84;81.91;99760.44;5058987;28;20025;-75
2021/05/12 03:54:31;;;;;;;19.13;17.00;;;;;;;14.87;81.62;99770.09;5061622;28;20449;-76
2021/05/12 03:56:56;;;;;;;18.48;16.42;;;;;;;14.78;81.62;99779.28;5061849;28;20139;-76
2021/05/12 03:59:22;;;;;;;21.20;18.95;;;;;;;14.79;81.62;99793.41;5060350;28;20087;-76
2021/05/12 04:01:48;;;;;;;20.08;17.02;;;;;;;14.78;81.06;99797.88;5062151;28;20046;-77
2021/05/12 04:04:14;;;;;;;20.90;17.63;;;;;;;14.75;81.23;99803.28;5059438;28;20029;-76
2021/05/12 04:06:43;;;;;;;17.10;15.25;;;;;;;14.72;81.51;99803.38;5076718;28;20086;-76
2021/05/12 04:09:08;;;;;;;19.83;16.63;;;;;;;14.80;81.66;99811.09;5061515;28;20043;-77
2021/05/12 04:11:33;;;;;;;21.20;18.35;;;;;;;14.82;81.49;99786.19;5060258;28;20043;-79
2021/05/12 04:13:59;;;;;;;17.50;15.63;;;;;;;14.86;81.02;99785.19;5064910;28;20083;-78
2021/05/12 04:16:24;;;;;;;15.63;13.68;;;;;;;14.92;80.96;99789.41;5062550;28;20040;-78
2021/05/12 04:18:49;;;;;;;18.45;14.93;;;;;;;14.89;80.58;99785.06;5062924;28;20039;-78
2021/05/12 04:21:15;;;;;;;16.55;14.00;;;;;;;14.83;80.82;99795.91;5063997;28;20043;-77
2021/05/12 04:23:41;;;;;;;18.17;14.40;;;;;;;14.79;81.14;99794.28;5061052;28;20035;-78
2021/05/12 04:26:06;;;;;;;16.52;12.73;;;;;;;14.79;81.15;99794.28;5065112;28;20479;-78
2021/05/12 04:28:31;;;;;;;17.00;13.00;;;;;;;14.70;81.44;99794.63;5061740;28;20083;-78
2021/05/12 04:30:57;;;;;;;16.08;12.98;;;;;;;14.73;81.12;99793.66;5058726;28;20041;-76
2021/05/12 04:33:22;;;;;;;16.23;13.48;;;;;;;14.77;80.99;99803.22;5063937;28;20044;-76
2021/05/12 04:35:47;;;;;;;14.27;12.40;;;;;;;14.75;80.56;99813.91;5062556;28;20037;-75
2021/05/12 04:38:13;;;;;;;15.98;11.50;;;;;;;14.73;80.93;99799.81;5065048;28;20044;-76
2021/05/12 04:40:38;;;;;;;19.13;13.20;;;;;;;14.75;80.61;99805.94;5064603;28;20021;-77
2021/05/12 04:43:03;;;;;;;16.73;12.73;;;;;;;14.79;80.17;99810.22;5078890;28;20060;-77
2021/05/12 04:45:29;;;;;;;14.45;12.27;;;;;;;14.73;80.39;99815.75;5065440;28;20124;-75
2021/05/12 04:47:55;;;;;;;13.70;12.05;;;;;;;14.77;80.56;99817.38;5062292;28;20098;-76
2021/05/12 04:50:22;;;;;;;15.38;12.85;;;;;;;14.74;80.47;99819.28;5064428;28;20032;-76
2021/05/12 04:52:48;;;;;;;13.57;12.00;;;;;;;14.79;79.96;99825.28;5063614;28;20037;-74
2021/05/12 04:55:13;;;;;;;16.77;12.30;;;;;;;14.80;80.14;99817.28;5078088;28;20557;-75
2021/05/12 04:57:38;;;;;;;14.27;11.90;;;;;;;14.84;80.46;99810.06;5069769;28;20044;-75
2021/05/12 05:00:05;;;;;;;16.73;12.20;;;;;;;14.84;80.16;99816.25;5064699;28;20123;-74
2021/05/12 05:02:32;;;;;;;14.18;12.18;;;;;;;14.81;80.36;99820.81;5062662;28;20032;-74
2021/05/12 05:04:57;;;;;;;14.27;12.32;;;;;;;14.87;80.04;99834.72;5059667;28;20115;-76
2021/05/12 05:07:22;;;;;;;14.25;11.75;;;;;;;14.93;79.58;99830.97;5058677;28;20068;-76
2021/05/12 05:09:48;;;;;;;16.42;12.75;;;;;;;14.88;79.75;99830.28;5056397;28;20026;-76
2021/05/12 05:12:13;;;;;;;14.77;11.88;;;;;;;14.98;79.61;99837.00;5056896;28;20407;-75
2021/05/12 05:14:38;;;;;;;14.40;12.18;;;;;;;15.04;79.45;99833.28;5063496;28;20024;-76
2021/05/12 05:17:04;;;;;;;17.83;13.15;;;;;;;15.05;79.33;99825.25;5062134;28;20071;-75
2021/05/12 05:19:30;;;;;;;14.38;11.45;;;;;;;15.07;79.55;99820.75;5061696;28;20090;-76
2021/05/12 05:21:57;;;;;;;14.48;11.68;;;;;;;15.01;79.91;99820.09;5063991;28;20394;-76
2021/05/12 05:24:22;;;;;;;14.65;12.27;;;;;;;14.96;79.85;99824.69;5063188;28;20666;-75
2021/05/12 05:26:48;;;;;;;15.68;13.18;;;;;;;14.85;79.87;99825.06;5062426;28;20044;-76
2021/05/12 05:29:13;;;;;;;17.60;13.88;;;;;;;14.87;79.78;99828.56;5058813;28;20037;-76
2021/05/12 05:31:38;;;;;;;17.40;12.90;;;;;;;14.89;80.02;99835.53;5064126;28;20028;-76
2021/05/12 05:34:22;;;;;;;17.55;13.48;;;;;;;14.90;79.68;99836.41;5064565;28;20541;-75
2021/05/12 05:37:07;;;;;;;14.63;12.77;;;;;;;14.83;80.20;99837.56;5064493;28;20133;-75
2021/05/12 05:39:52;;;;;;;21.00;14.77;;;;;;;14.74;80.32;99849.34;5062562;28;20442;-76
2021/05/12 05:42:36;;;;;;;18.23;12.68;;;;;;;14.83;80.12;99843.75;5056823;28;20124;-75
2021/05/12 05:45:19;;;;;;;17.52;12.93;;;;;;;14.89;79.76;99854.13;5060088;28;20132;-75
2021/05/12 05:48:23;;;;;;;17.13;13.90;;;;;;;15.02;79.25;99849.28;5006985;28;20048;-76
2021/05/12 05:51:22;;;;;;;20.23;14.90;;;;;;;15.00;79.36;99850.25;4982515;28;20077;-76
2021/05/12 05:54:06;;;;;;;20.02;15.57;;;;;;;15.05;79.13;99850.94;5048076;28;20072;-76
2021/05/12 05:56:51;;;;;;;18.65;13.10;;;;;;;15.11;78.01;99862.22;5058681;28;20131;-75
2021/05/12 05:59:35;;;;;;;16.65;12.85;;;;;;;15.02;78.08;99851.06;5057978;28;20475;-74
2021/05/12 06:02:19;;;;;;;19.65;14.50;;;;;;;14.89;78.52;99840.84;5060853;28;20048;-77
2021/05/12 06:05:04;;;;;;;18.85;15.15;;;;;;;14.93;78.61;99846.91;5061499;28;20178;-77
2021/05/12 06:07:48;;;;;;;18.42;14.80;;;;;;;14.90;78.52;99855.88;5061223;28;20068;-76
2021/05/12 06:10:32;;;;;;;21.08;16.90;;;;;;;14.83;78.72;99865.00;5061844;28;20093;-77
2021/05/12 06:13:16;;;;;;;19.27;15.88;;;;;;;14.79;79.30;99868.66;5060837;28;20100;-76
2021/05/12 06:16:02;;;;;;;22.02;15.25;;;;;;;14.84;79.12;99866.72;5060426;28;20140;-76
2021/05/12 06:18:47;;;;;;;16.83;14.57;;;;;;;14.75;79.35;99872.34;5059950;28;20095;-77
2021/05/12 06:21:31;;;;;;;18.75;15.68;;;;;;;14.77;79.02;99882.91;5071928;28;20208;-77
2021/05/12 06:24:15;;;;;;;17.90;15.25;;;;;;;14.79;78.90;99881.94;5058314;28;20087;-77
2021/05/12 06:27:00;;;;;;;21.90;16.42;;;;;;;14.89;78.32;99880.72;5060628;28;20206;-77
2021/05/12 06:29:43;;;;;;;19.90;16.88;;;;;;;15.04;78.00;99878.47;5073827;28;20407;-76
2021/05/12 06:32:27;;;;;;;18.52;15.80;;;;;;;15.33;76.71;99875.63;5060186;28;20055;-77
2021/05/12 06:35:11;;;;;;;20.75;15.88;;;;;;;15.36;76.30;99865.81;5061920;28;20074;-77
2021/05/12 06:37:55;;;;;;;19.08;15.77;;;;;;;15.46;76.18;99864.56;5074042;28;20070;-77
2021/05/12 06:40:23;;;;;;;22.60;16.23;;;;;;;15.54;75.50;99854.50;5060402;28;20398;-77
2021/05/12 06:42:48;;;;;;;23.13;15.95;;;;;;;15.65;75.43;99854.94;5063431;28;20028;-76
2021/05/12 06:45:14;;;;;;;19.80;15.07;;;;;;;15.82;74.46;99856.13;5052412;28;20405;-77
2021/05/12 06:47:41;;;;;;;17.50;15.27;;;;;;;15.90;72.95;99859.34;5060294;28;20115;-77
2021/05/12 06:50:07;;;;;;;21.02;16.88;;;;;;;15.96;73.05;99865.31;5061429;28;20111;-77
2021/05/12 06:52:33;;;;;;;20.50;16.45;;;;;;;16.03;72.59;99871.25;5059486;28;20025;-77
2021/05/12 06:54:58;;;;;;;19.05;16.35;;;;;;;16.10;72.58;99862.09;5062414;28;20069;-77
2021/05/12 06:57:24;;;;;;;19.67;14.80;;;;;;;16.50;71.32;99863.16;5052685;28;20048;-77
2021/05/12 06:59:49;;;;;;;16.08;13.65;;;;;;;16.57;71.16;99861.97;5076254;28;20036;-76
2021/05/12 07:02:14;;;;;;;17.33;14.57;;;;;;;16.79;70.49;99858.44;5063108;28;20044;-77
2021/05/12 07:04:40;;;;;;;18.67;15.40;;;;;;;17.07;69.02;99852.81;5060318;28;20036;-77
2021/05/12 07:07:05;;;;;;;21.48;15.52;;;;;;;17.14;69.34;99843.59;5062316;28;20044;-77
2021/05/12 07:09:30;;;;;;;23.95;16.58;;;;;;;17.15;69.57;99839.13;5061864;28;20082;-77
2021/05/12 07:11:56;;;;;;;19.25;14.57;;;;;;;17.23;69.10;99823.66;5060488;28;20063;-77
2021/05/12 07:14:21;;;;;;;20.40;14.45;;;;;;;17.47;69.79;99822.53;5063349;28;20128;-77
2021/05/12 07:16:47;;;;;;;16.77;14.98;;;;;;;17.45;68.33;99824.44;5060509;28;20036;-77
2021/05/12 07:19:12;;;;;;;20.48;15.55;;;;;;;17.28;68.50;99824.31;5062030;28;20036;-76
2021/05/12 07:21:37;;;;;;;19.25;15.98;;;;;;;17.09;69.10;99833.13;5061448;28;20044;-77
2021/05/12 07:24:03;;;;;;;17.95;16.02;;;;;;;16.92;70.50;99832.13;5060393;28;20040;-77
2021/05/12 07:26:29;;;;;;;21.27;14.93;;;;;;;16.80;69.31;99820.22;5062705;28;20530;-77
2021/05/12 07:28:54;;;;;;;18.00;14.27;;;;;;;16.47;70.42;99833.13;5060113;28;20036;-77
2021/05/12 07:31:20;;;;;;;18.52;14.50;;;;;;;16.50;69.80;99841.84;5060983;28;20029;-76
2021/05/12 07:33:46;;;;;;;18.88;14.77;;;;;;;16.40;70.47;99841.38;5060608;28;20025;-76
2021/05/12 07:36:12;;;;;;;18.65;14.57;;;;;;;16.71;69.43;99836.56;5055044;28;20028;-76
2021/05/12 07:38:37;;;;;;;18.50;14.00;;;;;;;16.90;69.21;99834.88;5063941;28;20449;-77
2021/05/12 07:41:03;;;;;;;18.48;14.15;;;;;;;17.20;68.07;99834.47;5059412;28;20025;-77
2021/05/12 07:43:29;;;;;;;18.35;14.88;;;;;;;17.14;66.56;99834.75;5061125;28;20107;-76
2021/05/12 07:45:56;;;;;;;17.88;14.27;;;;;;;17.08;68.23;99831.41;5059972;28;20087;-76
2021/05/12 07:48:22;;;;;;;17.38;12.43;;;;;;;17.02;67.91;99844.13;5062550;28;20032;-77
2021/05/12 07:50:47;;;;;;;15.75;13.15;;;;;;;16.74;68.29;99847.06;5056925;28;20059;-76
2021/05/12 07:53:13;;;;;;;16.58;12.90;;;;;;;16.67;69.64;99854.47;5060446;28;20098;-77
2021/05/12 07:55:38;;;;;;;17.98;13.70;;;;;;;16.70;68.72;99856.16;5061729;28;20501;-76
2021/05/12 07:58:05;;;;;;;15.10;12.75;;;;;;;16.52;68.66;99839.13;5059225;28;20041;-77
2021/05/12 08:00:33;;;;;;;20.75;13.23;;;;;;;16.44;69.17;99844.78;5060753;28;20025;-76
2021/05/12 08:02:58;;;;;;;16.92;12.68;;;;;;;16.35;69.25;99839.84;5060333;28;20037;-76
2021/05/12 08:05:24;;;;;;;18.23;15.10;;;;;;;16.23;69.73;99833.22;5059847;28;20041;-76
2021/05/12 08:07:49;;;;;;;18.58;14.27;;;;;;;16.16;70.09;99834.38;5064129;28;20067;-76
2021/05/12 08:10:15;;;;;;;20.15;15.95;;;;;;;16.02;70.59;99832.28;5063042;28;20403;-77
2021/05/12 08:12:40;;;;;;;18.88;14.73;;;;;;;16.08;70.50;99818.72;5065282;28;20040;-76
2021/05/12 08:15:07;;;;;;;17.30;14.00;;;;;;;16.15;70.75;99816.69;5064831;28;20079;-76
2021/05/12 08:17:32;;;;;;;21.45;15.52;;;;;;;16.24;70.52;99820.75;5063479;28;20040;-77
2021/05/12 08:19:59;;;;;;;21.13;16.88;;;;;;;16.15;70.85;99796.25;5053488;28;20411;-76
2021/05/12 08:22:25;;;;;;;20.20;15.15;;;;;;;16.29;70.91;99798.31;5064824;28;20036;-76
2021/05/12 08:24:51;;;;;;;20.60;15.38;;;;;;;16.30;70.39;99793.91;5064402;28;20116;-76
2021/05/12 08:27:16;;;;;;;17.65;14.20;;;;;;;16.53;69.94;99806.22;5063464;28;20036;-76
2021/05/12 08:29:43;;;;;;;20.75;15.55;;;;;;;16.34;70.50;99800.81;5065716;28;20063;-76
2021/05/12 08:32:14;;;;;;;19.75;14.35;;;;;;;16.57;69.81;99798.03;5062652;28;20063;-76
2021/05/12 08:34:40;;;;;;;18.65;14.88;;;;;;;16.80;69.34;99799.75;5063615;28;20131;-77
2021/05/12 08:37:06;;;;;;;23.85;15.30;;;;;;;17.07;68.76;99808.34;5065435;28;20139;-76
2021/05/12 08:39:33;;;;;;;22.77;16.05;;;;;;;17.03;68.81;99809.44;5062435;28;20127;-76
2021/05/12 08:41:59;;;;;;;20.00;16.23;;;;;;;17.12;67.73;99817.94;5064143;28;20475;-77
2021/05/12 08:44:24;;;;;;;22.15;16.92;;;;;;;16.79;68.83;99815.81;5062707;28;20127;-76
2021/05/12 08:46:50;;;;;;;22.92;17.45;;;;;;;16.89;69.10;99834.94;5062497;28;20036;-76
2021/05/12 08:49:17;;;;;;;22.70;17.52;;;;;;;16.89;68.70;99827.81;5065265;28;20036;-76
2021/05/12 08:51:42;;;;;;;24.67;18.33;;;;;;;16.78;69.04;99838.06;5062636;28;20033;-76
2021/05/12 08:54:09;;;;;;;20.63;16.90;;;;;;;16.67;69.43;99824.31;5064119;28;20470;-75
2021/05/12 08:56:34;;;;;;;22.55;16.42;;;;;;;16.38;70.59;99818.41;5064841;28;20032;-77
2021/05/12 08:59:01;;;;;;;24.08;17.83;;;;;;;16.35;71.45;99824.72;5062663;28;20561;-77
2021/05/12 09:01:27;;;;;;;19.40;16.35;;;;;;;16.51;70.26;99824.09;5064977;28;20456;-77
2021/05/12 09:03:52;;;;;;;21.95;17.60;;;;;;;16.32;70.54;99819.53;5063716;28;20040;-76
2021/05/12 09:06:18;;;;;;;22.90;16.50;;;;;;;16.17;71.66;99815.69;5063535;28;20080;-76
2021/05/12 09:08:47;;;;;;;25.77;17.38;;;;;;;16.24;71.99;99804.78;5065892;28;20040;-76
2021/05/12 09:11:12;;;;;;;26.02;18.60;;;;;;;16.39;71.42;99815.66;5058832;28;20510;-76
2021/05/12 09:13:39;;;;;;;23.42;18.27;;;;;;;16.20;71.28;99818.22;5063998;28;20040;-76
2021/05/12 09:16:23;;;;;;;23.48;17.75;;;;;;;16.05;72.11;99820.63;5072355;28;20059;-76
2021/05/12 09:19:00;;;;;;;21.02;18.00;;;;;;;16.06;71.88;99835.66;5061643;28;20171;-76
2021/05/12 09:21:41;;;;;;;25.02;18.88;;;;;;;16.08;71.01;99825.84;5058722;28;20094;-76
2021/05/12 09:24:20;;;;;;;24.23;17.27;;;;;;;16.08;71.24;99826.69;5077711;28;20501;-76
2021/05/12 09:26:47;;;;;;;24.55;16.90;;;;;;;16.26;70.22;99829.56;5063163;28;20037;-76
2021/05/12 09:29:20;;;;;;;22.50;16.08;;;;;;;16.18;70.31;99845.84;5052337;28;20410;-76
2021/05/12 09:31:45;;;;;;;23.33;16.98;;;;;;;16.21;70.71;99833.25;5059907;28;20127;-77
2021/05/12 09:34:12;;;;;;;18.85;14.82;;;;;;;16.19;70.60;99837.78;5063093;28;20191;-76
2021/05/12 09:36:37;;;;;;;23.08;16.50;;;;;;;16.25;70.57;99826.03;5065993;28;20115;-77
2021/05/12 09:39:09;;;;;;;19.27;15.73;;;;;;;16.18;70.61;99833.38;5061838;28;20448;-76
2021/05/12 09:41:35;;;;;;;18.60;15.30;;;;;;;16.00;71.13;99834.13;5063358;28;20027;-77
2021/05/12 09:44:03;;;;;;;17.50;14.35;;;;;;;16.05;70.51;99848.13;5059283;28;20040;-76
2021/05/12 09:46:36;;;;;;;17.65;14.45;;;;;;;16.10;70.18;99846.13;5064771;28;20047;-76
2021/05/12 09:49:02;;;;;;;17.95;14.00;;;;;;;16.04;70.90;99851.72;5063339;28;20040;-77
2021/05/12 09:51:29;;;;;;;16.70;13.45;;;;;;;16.27;70.59;99849.91;5061893;28;20029;-77
2021/05/12 09:54:17;;;;;;;15.68;13.70;;;;;;;16.39;69.91;99852.09;5064760;28;20437;-76
2021/05/12 09:56:55;;;;;;;16.45;13.60;;;;;;;16.40;69.61;99840.50;5061234;28;20073;-76
2021/05/12 09:59:26;;;;;;;18.65;14.35;;;;;;;16.29;69.92;99845.41;5058392;28;20082;-77
2021/05/12 10:01:56;;;;;;;14.63;12.27;;;;;;;16.35;70.33;99839.84;5062140;28;20107;-76
2021/05/12 10:04:58;;;;;;;16.67;12.55;;;;;;;16.49;69.51;99844.59;5066128;28;20033;-77
2021/05/12 10:07:26;;;;;;;16.42;12.57;;;;;;;16.41;69.17;99844.91;5051069;28;20044;-77
2021/05/12 10:09:53;;;;;;;15.02;12.27;;;;;;;16.46;69.18;99842.91;5063669;28;20032;-76
2021/05/12 10:12:31;;;;;;;15.95;11.65;;;;;;;16.55;68.43;99837.19;5070639;28;20056;-76
2021/05/12 10:14:58;;;;;;;14.18;11.50;;;;;;;16.57;68.70;99831.81;5059557;28;20446;-76
2021/05/12 10:17:28;;;;;;;13.75;11.68;;;;;;;16.52;68.53;99821.34;5063186;28;20055;-77
2021/05/12 10:19:55;;;;;;;14.02;11.00;;;;;;;16.44;68.64;99834.97;5061698;28;20037;-77
2021/05/12 10:22:21;;;;;;;12.27;10.98;;;;;;;16.39;68.88;99821.00;5058751;28;20598;-77
2021/05/12 10:24:48;;;;;;;12.50;10.98;;;;;;;16.43;69.13;99822.59;5079658;28;20119;-76
2021/05/12 10:27:28;;;;;;;12.77;10.65;;;;;;;16.59;69.01;99817.50;5062033;28;20036;-76
2021/05/12 10:29:55;;;;;;;12.90;10.18;;;;;;;16.73;68.19;99824.91;5058481;28;20078;-76
2021/05/12 10:32:24;;;;;;;12.40;10.70;;;;;;;16.59;68.31;99821.97;5057638;28;20035;-77
2021/05/12 10:35:05;;;;;;;13.77;12.05;;;;;;;16.33;68.44;99839.03;5062410;28;20041;-77
2021/05/12 10:37:38;;;;;;;14.15;11.50;;;;;;;16.14;69.06;99842.44;5062255;28;20407;-77
2021/05/12 10:40:32;;;;;;;16.50;13.27;;;;;;;15.96;69.45;99844.03;5066000;28;20044;-77
2021/05/12 10:43:17;;;;;;;13.88;11.32;;;;;;;15.93;70.14;99840.63;5056878;28;20095;-78
2021/05/12 10:45:57;;;;;;;16.13;12.75;;;;;;;15.83;70.50;99848.09;5060788;28;20471;-77
2021/05/12 10:48:33;;;;;;;16.50;13.25;;;;;;;15.86;70.10;99855.09;5072825;28;20505;-77
2021/05/12 10:51:04;;;;;;;14.35;12.07;;;;;;;15.77;71.00;99862.50;5061578;28;20028;-78
2021/05/12 10:53:51;;;;;;;13.98;11.80;;;;;;;15.77;71.00;99859.84;5057943;28;20655;-78
2021/05/12 10:56:18;;;;;;;17.35;13.77;;;;;;;15.76;70.89;99862.56;5061251;28;20049;-78
2021/05/12 10:58:56;;;;;;;14.20;11.90;;;;;;;15.80;71.11;99856.19;5063531;28;20044;-78
2021/05/12 11:01:23;;;;;;;15.95;11.75;;;;;;;15.83;70.28;99868.53;5064122;28;20136;-76
2021/05/12 11:03:54;;;;;;;14.80;12.35;;;;;;;15.80;70.61;99860.63;5062092;28;20033;-78
2021/05/12 11:06:47;;;;;;;15.80;12.37;;;;;;;15.77;70.88;99854.53;5063057;28;20040;-77
2021/05/12 11:09:14;;;;;;;;;;;;;;;15.74;71.23;99853.75;5064669;28;20482;-77
2021/05/12 11:11:45;;;;;;;14.20;11.13;;;;;;;15.66;70.93;99861.13;5061706;28;20390;-78
2021/05/12 11:14:17;;;;;;;14.30;12.37;;;;;;;15.53;71.03;99861.59;5061186;28;20067;-78
2021/05/12 11:17:04;;;;;;;13.63;11.35;;;;;;;15.52;71.20;99866.97;5068830;28;20071;-78
2021/05/12 11:19:39;;;;;;;14.35;11.57;;;;;;;15.54;71.82;99863.34;5056772;28;20616;-78
2021/05/12 11:22:43;;;;;;;15.25;11.70;;;;;;;15.52;72.20;99848.34;5062211;28;20036;-77
2021/05/12 11:33:04;;;;;;;14.90;12.88;;;;;;;15.49;72.64;99859.13;5057766;28;20040;-78